Time;durP1;ratioP1;P1;durP2;ratioP2;P2;SDS_P1;SDS_P2;PMS_P1;PMS_P2;Temp;Humidity;BMP_temperature;BMP_pressure;BME280_temperature;BME280_humidity;BME280_pressure;Samples;Min_cycle;Max_cycle;Signal;HPM_P1;HPM_P2
2022/09/09 00:02:23;;;;;;;14.93;3.05;;;;;;;-145.01;100.00;64805.59;5051945;28;20694;-55
2022/09/09 00:05:26;;;;;;;16.48;3.40;;;;;;;-145.01;100.00;64805.59;5049961;28;20037;-55
2022/09/09 00:07:54;;;;;;;8.88;2.88;;;;;;;-145.01;100.00;64805.59;5032929;28;20079;-54
2022/09/09 00:10:25;;;;;;;9.70;2.78;;;;;;;-145.01;100.00;64805.59;5055037;28;20029;-55
2022/09/09 00:13:29;;;;;;;9.02;2.60;;;;;;;-145.01;100.00;64805.59;5052392;28;20106;-53
2022/09/09 00:16:00;;;;;;;9.88;3.13;;;;;;;-145.01;100.00;64805.59;5055469;28;20036;-55
2022/09/09 00:18:51;;;;;;;9.88;2.70;;;;;;;-145.01;100.00;64805.59;5054285;28;20017;-55
2022/09/09 00:21:17;;;;;;;12.00;4.43;;;;;;;-145.01;100.00;64805.59;5036277;28;20168;-51
2022/09/09 00:23:51;;;;;;;7.28;3.00;;;;;;;-145.01;100.00;64805.59;5054648;28;20116;-55
2022/09/09 00:26:23;;;;;;;7.97;3.05;;;;;;;-145.01;100.00;64805.59;5092379;28;20283;-53
2022/09/09 00:29:04;;;;;;;9.98;2.80;;;;;;;-145.01;100.00;64805.59;5047896;28;20029;-53
2022/09/09 00:31:30;;;;;;;9.05;2.85;;;;;;;-145.01;100.00;64805.59;5070310;28;20422;-56
2022/09/09 00:33:58;;;;;;;6.60;2.65;;;;;;;-145.01;100.00;64805.59;5049845;28;20029;-55
2022/09/09 00:36:25;;;;;;;10.10;2.90;;;;;;;-145.01;100.00;64805.59;5051261;28;20378;-57
2022/09/09 00:38:58;;;;;;;14.40;2.85;;;;;;;-145.01;100.00;64805.59;5050310;28;20041;-56
2022/09/09 00:41:43;;;;;;;16.73;3.88;;;;;;;-145.01;100.00;64805.59;5088626;28;20029;-53
2022/09/09 00:44:31;;;;;;;6.85;2.83;;;;;;;-145.01;100.00;64805.59;5047618;28;20045;-57
2022/09/09 00:47:26;;;;;;;7.95;2.60;;;;;;;-145.01;100.00;64805.59;5054873;28;20056;-56
2022/09/09 00:50:07;;;;;;;9.07;2.92;;;;;;;-145.01;100.00;64805.59;5077676;28;20036;-55
2022/09/09 00:52:45;;;;;;;11.55;3.00;;;;;;;-145.01;100.00;64805.59;5049548;28;20025;-54
2022/09/09 00:55:47;;;;;;;8.07;2.97;;;;;;;-145.01;100.00;64805.59;5050504;28;20439;-55
2022/09/09 00:58:13;;;;;;;14.93;3.05;;;;;;;-145.01;100.00;64805.59;5056031;28;20378;-55
2022/09/09 01:00:48;;;;;;;10.93;2.80;;;;;;;-145.01;100.00;64805.59;5059489;28;20020;-56
2022/09/09 01:03:42;;;;;;;10.98;2.70;;;;;;;-145.01;100.00;64805.59;5059995;28;20045;-55
2022/09/09 01:06:22;;;;;;;9.35;2.72;;;;;;;-145.01;100.00;64805.59;5055427;28;20048;-55
2022/09/09 01:08:56;;;;;;;;;;;;;;;-145.01;100.00;64805.59;5054115;28;20078;-55
2022/09/09 01:11:25;;;;;;;9.15;2.60;;;;;;;-145.01;100.00;64805.59;5060803;28;20361;-54
2022/09/09 01:13:58;;;;;;;13.32;3.72;;;;;;;-145.01;100.00;64805.59;5052354;28;20033;-56
2022/09/09 01:16:24;;;;;;;9.80;2.72;;;;;;;-145.01;100.00;64805.59;5060287;28;21476;-56
2022/09/09 01:18:52;;;;;;;8.43;2.55;;;;;;;-145.01;100.00;64805.59;5059018;28;20028;-55
2022/09/09 01:21:35;;;;;;;6.70;2.63;;;;;;;-145.01;100.00;64805.59;5068073;28;20112;-55
2022/09/09 01:24:12;;;;;;;7.95;2.45;;;;;;;-145.01;100.00;64805.59;5053141;28;20412;-55
2022/09/09 01:26:39;;;;;;;8.25;2.40;;;;;;;-145.01;100.00;64805.59;5053856;28;20020;-56
2022/09/09 01:29:08;;;;;;;7.90;2.40;;;;;;;-145.01;100.00;64805.59;5055260;28;20498;-55
2022/09/09 01:31:42;;;;;;;7.72;2.38;;;;;;;-145.01;100.00;64805.59;5051498;28;20522;-54
2022/09/09 01:34:14;;;;;;;11.05;3.10;;;;;;;-145.01;100.00;64805.59;5055374;28;20032;-55
2022/09/09 01:36:46;;;;;;;7.45;2.40;;;;;;;-145.01;100.00;64805.59;5052584;28;20387;-55
2022/09/09 01:39:11;;;;;;;9.90;2.53;;;;;;;-145.01;100.00;64805.59;5034507;28;20047;-53
2022/09/09 01:41:37;;;;;;;10.85;2.53;;;;;;;-145.01;100.00;64805.59;5051430;28;20029;-55
2022/09/09 01:44:02;;;;;;;11.00;2.72;;;;;;;-145.01;100.00;64805.59;5037880;28;20037;-54
2022/09/09 01:46:28;;;;;;;3.85;2.22;;;;;;;-145.01;100.00;64805.59;5057348;28;20116;-54
2022/09/09 01:48:53;;;;;;;11.32;3.00;;;;;;;-145.01;100.00;64805.59;5041010;28;20356;-53
2022/09/09 01:51:19;;;;;;;9.75;2.55;;;;;;;-145.01;100.00;64805.59;5054673;28;20028;-55
2022/09/09 01:53:44;;;;;;;11.18;2.55;;;;;;;-145.01;100.00;64805.59;5052183;28;20028;-55
2022/09/09 01:56:22;;;;;;;6.00;2.28;;;;;;;-145.01;100.00;64805.59;5055360;28;20029;-55
2022/09/09 01:58:58;;;;;;;9.70;2.47;;;;;;;-145.01;100.00;64805.59;5061845;28;20028;-54
2022/09/09 02:01:38;;;;;;;6.43;2.28;;;;;;;-145.01;100.00;64805.59;5057901;28;20036;-54
2022/09/09 02:04:11;;;;;;;11.38;2.50;;;;;;;-145.01;100.00;64805.59;5057505;28;20036;-56
2022/09/09 02:06:38;;;;;;;9.57;2.92;;;;;;;-145.01;100.00;64805.59;5050941;28;20026;-54
2022/09/09 02:09:07;;;;;;;11.98;2.65;;;;;;;-145.01;100.00;64805.59;5054123;28;20031;-54
2022/09/09 02:11:33;;;;;;;10.65;2.80;;;;;;;-145.01;100.00;64805.59;5052918;28;20494;-55
2022/09/09 02:14:19;;;;;;;7.35;2.58;;;;;;;-145.01;100.00;64805.59;5055305;28;20025;-54
2022/09/09 02:16:49;;;;;;;10.70;3.10;;;;;;;-145.01;100.00;64805.59;5056354;28;20033;-55
2022/09/09 02:19:27;;;;;;;14.85;2.80;;;;;;;-145.01;100.00;64805.59;5051867;28;20045;-55
2022/09/09 02:21:54;;;;;;;7.78;2.42;;;;;;;-145.01;100.00;64805.59;5056659;28;20028;-55
2022/09/09 02:24:20;;;;;;;8.75;3.00;;;;;;;-145.01;100.00;64805.59;5052006;28;20033;-55
2022/09/09 02:26:46;;;;;;;18.95;3.70;;;;;;;-145.01;100.00;64805.59;5083962;28;20367;-54
2022/09/09 02:29:14;;;;;;;6.78;2.63;;;;;;;-145.01;100.00;64805.59;5036696;28;20036;-55
2022/09/09 02:31:40;;;;;;;9.25;2.70;;;;;;;-145.01;100.00;64805.59;5033927;28;20372;-54
2022/09/09 02:34:05;;;;;;;13.63;2.80;;;;;;;-145.01;100.00;64805.59;5083556;28;20056;-55
2022/09/09 02:36:33;;;;;;;10.55;2.45;;;;;;;-145.01;100.00;64805.59;5050468;28;20589;-55
2022/09/09 02:39:02;;;;;;;13.80;2.90;;;;;;;-145.01;100.00;64805.59;5054301;28;20467;-55
2022/09/09 02:41:33;;;;;;;12.98;3.05;;;;;;;-145.01;100.00;64805.59;5042633;28;20628;-54
2022/09/09 02:43:59;;;;;;;5.72;2.80;;;;;;;-145.01;100.00;64805.59;5056783;28;20450;-54
2022/09/09 02:46:28;;;;;;;10.55;3.13;;;;;;;-145.01;100.00;64805.59;5056169;28;20471;-55
2022/09/09 02:49:01;;;;;;;13.43;2.80;;;;;;;-145.01;100.00;64805.59;5055943;28;20029;-55
2022/09/09 02:51:43;;;;;;;10.93;3.10;;;;;;;-145.01;100.00;64805.59;5052701;28;20040;-53
2022/09/09 02:54:32;;;;;;;9.50;3.10;;;;;;;-145.01;100.00;64805.59;5058388;28;20043;-55
2022/09/09 02:57:12;;;;;;;9.98;2.83;;;;;;;-145.01;100.00;64805.59;5055630;28;20382;-55
2022/09/09 02:59:39;;;;;;;15.35;4.03;;;;;;;-145.01;100.00;64805.59;5057508;28;20020;-55
2022/09/09 03:02:04;;;;;;;7.68;3.13;;;;;;;-145.01;100.00;64805.59;5052274;28;20387;-54
2022/09/09 03:04:31;;;;;;;7.03;3.10;;;;;;;-145.01;100.00;64805.59;5055083;28;20045;-55
2022/09/09 03:06:57;;;;;;;8.02;2.75;;;;;;;-145.01;100.00;64805.59;5060031;28;20029;-55
2022/09/09 03:09:22;;;;;;;9.07;3.00;;;;;;;-145.01;100.00;64805.59;5052794;28;20032;-54
2022/09/09 03:11:49;;;;;;;13.18;3.08;;;;;;;-145.01;100.00;64805.59;5056876;28;20032;-54
2022/09/09 03:14:15;;;;;;;7.30;2.90;;;;;;;-145.01;100.00;64805.59;5055747;28;20025;-55
2022/09/09 03:16:42;;;;;;;19.50;3.58;;;;;;;-145.01;100.00;64805.59;5049544;28;20013;-55
2022/09/09 03:19:07;;;;;;;10.65;2.92;;;;;;;-145.01;100.00;64805.59;5083682;28;20064;-55
2022/09/09 03:21:33;;;;;;;11.48;3.33;;;;;;;-145.01;100.00;64805.59;5054923;28;20029;-54
2022/09/09 03:23:58;;;;;;;9.10;2.47;;;;;;;-145.01;100.00;64805.59;5049239;28;20025;-54
2022/09/09 03:26:24;;;;;;;7.38;2.40;;;;;;;-145.01;100.00;64805.59;5054062;28;20041;-54
2022/09/09 03:28:52;;;;;;;10.75;3.10;;;;;;;-145.01;100.00;64805.59;5048954;28;20075;-54
2022/09/09 03:31:18;;;;;;;9.35;2.60;;;;;;;-145.01;100.00;64805.59;5050500;28;20033;-54
2022/09/09 03:33:43;;;;;;;14.18;2.78;;;;;;;-145.01;100.00;64805.59;5085035;28;20024;-54
2022/09/09 03:36:08;;;;;;;12.65;2.60;;;;;;;-145.01;100.00;64805.59;5055059;28;20452;-55
2022/09/09 03:38:34;;;;;;;10.48;2.75;;;;;;;-145.01;100.00;64805.59;5050240;28;20083;-53
2022/09/09 03:41:01;;;;;;;11.75;3.08;;;;;;;-145.01;100.00;64805.59;5053492;28;20043;-55
2022/09/09 03:43:26;;;;;;;10.60;2.70;;;;;;;-145.01;100.00;64805.59;5054886;28;20426;-56
2022/09/09 03:45:52;;;;;;;8.80;2.83;;;;;;;-145.01;100.00;64805.59;5055020;28;20041;-55
2022/09/09 03:48:18;;;;;;;4.97;2.22;;;;;;;-145.01;100.00;64805.59;5055689;28;20040;-55
2022/09/09 03:50:47;;;;;;;12.43;2.88;;;;;;;-145.01;100.00;64805.59;5049838;28;20036;-55
2022/09/09 03:53:13;;;;;;;8.65;2.75;;;;;;;-145.01;100.00;64805.59;5054296;28;20130;-56
2022/09/09 03:55:38;;;;;;;14.02;2.70;;;;;;;-145.01;100.00;64805.59;5048733;28;20035;-55
2022/09/09 03:58:04;;;;;;;7.55;2.72;;;;;;;-145.01;100.00;64805.59;5053093;28;20029;-56
2022/09/09 04:00:30;;;;;;;10.63;2.95;;;;;;;-145.01;100.00;64805.59;5055464;28;20041;-55
2022/09/09 04:02:56;;;;;;;10.82;2.63;;;;;;;-145.01;100.00;64805.59;5055652;28;20025;-55
2022/09/09 04:05:22;;;;;;;9.32;2.85;;;;;;;-145.01;100.00;64805.59;5054442;28;20372;-55
2022/09/09 04:07:47;;;;;;;16.60;2.50;;;;;;;-145.01;100.00;64805.59;5050045;28;20032;-54
2022/09/09 04:10:13;;;;;;;9.75;2.67;;;;;;;-145.01;100.00;64805.59;5050992;28;20095;-56
2022/09/09 04:12:38;;;;;;;9.88;2.67;;;;;;;-145.01;100.00;64805.59;5050080;28;20028;-55
2022/09/09 04:15:04;;;;;;;9.32;2.60;;;;;;;-145.01;100.00;64805.59;5049713;28;20021;-55
2022/09/09 04:17:30;;;;;;;9.10;2.83;;;;;;;-145.01;100.00;64805.59;5049498;28;20545;-56
2022/09/09 04:19:56;;;;;;;25.40;3.17;;;;;;;-145.01;100.00;64805.59;5049741;28;20108;-56
2022/09/09 04:22:22;;;;;;;9.13;2.78;;;;;;;-145.01;100.00;64805.59;5053412;28;20060;-55
2022/09/09 04:24:47;;;;;;;11.15;3.28;;;;;;;-145.01;100.00;64805.59;5056645;28;20387;-55
2022/09/09 04:27:13;;;;;;;8.75;2.75;;;;;;;-145.01;100.00;64805.59;5055610;28;20024;-54
2022/09/09 04:29:38;;;;;;;9.82;2.75;;;;;;;-145.01;100.00;64805.59;5055984;28;20017;-55
2022/09/09 04:32:05;;;;;;;10.38;2.80;;;;;;;-145.01;100.00;64805.59;5054960;28;20376;-54
2022/09/09 04:34:31;;;;;;;14.55;2.90;;;;;;;-145.01;100.00;64805.59;5053654;28;20033;-55
2022/09/09 04:36:56;;;;;;;9.20;2.95;;;;;;;-145.01;100.00;64805.59;5057416;28;20025;-54
2022/09/09 04:39:22;;;;;;;10.85;3.03;;;;;;;-145.01;100.00;64805.59;5055292;28;20025;-55
2022/09/09 04:41:48;;;;;;;13.02;3.17;;;;;;;-145.01;100.00;64805.59;5066004;28;20047;-55
2022/09/09 04:44:13;;;;;;;14.18;2.83;;;;;;;-145.01;100.00;64805.59;5057081;28;20094;-55
2022/09/09 04:46:41;;;;;;;11.38;2.88;;;;;;;-145.01;100.00;64805.59;5059646;28;20036;-55
2022/09/09 04:49:06;;;;;;;10.27;2.70;;;;;;;-145.01;100.00;64805.59;5053003;28;20078;-56
2022/09/09 04:51:32;;;;;;;7.28;2.50;;;;;;;-145.01;100.00;64805.59;5053149;28;20029;-54
2022/09/09 04:53:57;;;;;;;12.27;3.10;;;;;;;-145.01;100.00;64805.59;5057926;28;20021;-55
2022/09/09 04:56:23;;;;;;;8.57;3.08;;;;;;;-145.01;100.00;64805.59;5053484;28;20543;-56
2022/09/09 04:58:48;;;;;;;11.57;3.00;;;;;;;-145.01;100.00;64805.59;5059109;28;20498;-55
2022/09/09 05:01:18;;;;;;;6.55;2.67;;;;;;;-145.01;100.00;64805.59;5064927;28;20037;-56
2022/09/09 05:03:47;;;;;;;9.05;3.05;;;;;;;-145.01;100.00;64805.59;5059312;28;20056;-55
2022/09/09 05:06:14;;;;;;;9.63;2.83;;;;;;;-145.01;100.00;64805.59;5058775;28;20039;-55
2022/09/09 05:08:40;;;;;;;9.80;3.35;;;;;;;-145.01;100.00;64805.59;5054726;28;20440;-56
2022/09/09 05:11:25;;;;;;;11.25;2.97;;;;;;;-145.01;100.00;64805.59;5056332;28;20064;-55
2022/09/09 05:13:51;;;;;;;11.77;3.38;;;;;;;-145.01;100.00;64805.59;5053205;28;20776;-55
2022/09/09 05:16:16;;;;;;;9.25;2.90;;;;;;;-145.01;100.00;64805.59;5053943;28;20017;-55
2022/09/09 05:18:45;;;;;;;16.30;3.20;;;;;;;-145.01;100.00;64805.59;5062592;28;20036;-56
2022/09/09 05:21:11;;;;;;;10.77;3.13;;;;;;;-145.01;100.00;64805.59;5062647;28;20052;-54
2022/09/09 05:23:37;;;;;;;10.57;3.00;;;;;;;-145.01;100.00;64805.59;5058274;28;20486;-56
2022/09/09 05:26:03;;;;;;;18.00;2.92;;;;;;;-145.01;100.00;64805.59;5055901;28;20069;-55
2022/09/09 05:28:29;;;;;;;11.77;3.10;;;;;;;-145.01;100.00;64805.59;5059092;28;20048;-56
2022/09/09 05:31:00;;;;;;;10.63;2.65;;;;;;;-145.01;100.00;64805.59;5056161;28;20348;-56
2022/09/09 05:33:26;;;;;;;15.75;3.60;;;;;;;-145.01;100.00;64805.59;5063592;28;20020;-55
2022/09/09 05:35:59;;;;;;;8.48;2.78;;;;;;;-145.01;100.00;64805.59;5057122;28;20033;-55
2022/09/09 05:38:25;;;;;;;12.07;2.90;;;;;;;-145.01;100.00;64805.59;5057554;28;20039;-56
2022/09/09 05:40:52;;;;;;;11.48;2.53;;;;;;;-145.01;100.00;64805.59;5056884;28;20498;-55
2022/09/09 05:43:20;;;;;;;8.27;2.58;;;;;;;-145.01;100.00;64805.59;5055008;28;20021;-55
2022/09/09 05:45:49;;;;;;;12.35;2.38;;;;;;;-145.01;100.00;64805.59;5054863;28;20021;-56
2022/09/09 05:48:15;;;;;;;5.85;2.03;;;;;;;-145.01;100.00;64805.59;5084916;28;20024;-55
2022/09/09 05:50:42;;;;;;;7.43;2.50;;;;;;;-145.01;100.00;64805.59;5073141;28;20032;-56
2022/09/09 05:53:08;;;;;;;9.55;2.40;;;;;;;-145.01;100.00;64805.59;5060089;28;20040;-55
2022/09/09 05:55:34;;;;;;;10.02;2.28;;;;;;;-145.01;100.00;64805.59;5055309;28;20378;-56
2022/09/09 05:57:59;;;;;;;9.98;2.30;;;;;;;-145.01;100.00;64805.59;5051760;28;20036;-56
2022/09/09 06:00:26;;;;;;;16.48;2.60;;;;;;;-145.01;100.00;64805.59;5051831;28;20419;-56
2022/09/09 06:02:52;;;;;;;10.30;2.08;;;;;;;-145.01;100.00;64805.59;5054730;28;20119;-56
2022/09/09 06:05:18;;;;;;;11.98;2.33;;;;;;;-145.01;100.00;64805.59;5055986;28;20029;-56
2022/09/09 06:07:44;;;;;;;11.73;2.10;;;;;;;-145.01;100.00;64805.59;5059817;28;20032;-54
2022/09/09 06:10:13;;;;;;;11.48;2.30;;;;;;;-145.01;100.00;64805.59;5060230;28;20125;-55
2022/09/09 06:12:39;;;;;;;8.90;2.05;;;;;;;-145.01;100.00;64805.59;5053244;28;20056;-55
2022/09/09 06:15:05;;;;;;;7.97;2.30;;;;;;;-145.01;100.00;64805.59;5084816;28;20033;-55
2022/09/09 06:17:30;;;;;;;10.70;2.45;;;;;;;-145.01;100.00;64805.59;5050415;28;20048;-55
2022/09/09 06:19:59;;;;;;;9.85;2.17;;;;;;;-145.01;100.00;64805.59;5056060;28;20056;-56
2022/09/09 06:22:25;;;;;;;12.10;2.20;;;;;;;-145.01;100.00;64805.59;5049218;28;20380;-56
2022/09/09 06:24:51;;;;;;;11.07;2.63;;;;;;;-145.01;100.00;64805.59;5055747;28;20029;-55
2022/09/09 06:27:16;;;;;;;13.68;2.45;;;;;;;-145.01;100.00;64805.59;5056781;28;20032;-53
2022/09/09 06:29:42;;;;;;;12.68;2.38;;;;;;;-145.01;100.00;64805.59;5051108;28;20036;-55
2022/09/09 06:32:08;;;;;;;7.90;2.00;;;;;;;-145.01;100.00;64805.59;5058498;28;20067;-56
2022/09/09 06:34:33;;;;;;;9.45;2.08;;;;;;;-145.01;100.00;64805.59;5049393;28;20039;-56
2022/09/09 06:36:59;;;;;;;6.47;1.80;;;;;;;-145.01;100.00;64805.59;5057188;28;20475;-56
2022/09/09 06:39:25;;;;;;;9.63;1.80;;;;;;;-145.01;100.00;64805.59;5054098;28;20025;-54
2022/09/09 06:41:52;;;;;;;9.85;2.30;;;;;;;-145.01;100.00;64805.59;5049496;28;20032;-55
2022/09/09 06:44:18;;;;;;;8.10;1.88;;;;;;;-145.01;100.00;64805.59;5057298;28;20032;-55
2022/09/09 06:46:47;;;;;;;10.85;2.33;;;;;;;-145.01;100.00;64805.59;5091755;28;20644;-56
2022/09/09 06:49:13;;;;;;;8.93;2.20;;;;;;;-145.01;100.00;64805.59;5052582;28;20437;-55
2022/09/09 06:51:42;;;;;;;9.73;2.15;;;;;;;-145.01;100.00;64805.59;5052770;28;20024;-56
2022/09/09 06:54:08;;;;;;;8.82;2.10;;;;;;;-145.01;100.00;64805.59;5053821;28;20540;-58
2022/09/09 06:56:35;;;;;;;8.32;2.25;;;;;;;-145.01;100.00;64805.59;5053217;28;20033;-55
2022/09/09 06:59:03;;;;;;;11.95;2.13;;;;;;;-145.01;100.00;64805.59;5057627;28;20025;-53
2022/09/09 07:01:30;;;;;;;11.88;2.10;;;;;;;-145.01;100.00;64805.59;5053833;28;20059;-56
2022/09/09 07:03:58;;;;;;;11.75;2.40;;;;;;;-145.01;100.00;64805.59;5054668;28;20040;-55
2022/09/09 07:06:26;;;;;;;9.95;2.10;;;;;;;-145.01;100.00;64805.59;5058194;28;20090;-56
2022/09/09 07:08:52;;;;;;;6.90;2.10;;;;;;;-145.01;100.00;64805.59;5053166;28;20281;-55
2022/09/09 07:11:19;;;;;;;10.80;2.42;;;;;;;-145.01;100.00;64805.59;5053327;28;20036;-55
2022/09/09 07:13:44;;;;;;;9.25;2.22;;;;;;;-145.01;100.00;64805.59;5055438;28;20364;-53
2022/09/09 07:16:12;;;;;;;8.38;1.90;;;;;;;-145.01;100.00;64805.59;5053512;28;20529;-55
2022/09/09 07:18:38;;;;;;;8.43;2.10;;;;;;;-145.01;100.00;64805.59;5055348;28;20021;-55
2022/09/09 07:21:04;;;;;;;8.45;2.25;;;;;;;-145.01;100.00;64805.59;5057077;28;20021;-54
2022/09/09 07:23:30;;;;;;;9.23;2.10;;;;;;;-145.01;100.00;64805.59;5056379;28;20017;-55
2022/09/09 07:25:56;;;;;;;9.95;2.35;;;;;;;-145.01;100.00;64805.59;5054093;28;20395;-55
2022/09/09 07:28:22;;;;;;;10.98;2.17;;;;;;;-145.01;100.00;64805.59;5055604;28;20045;-54
2022/09/09 07:31:01;;;;;;;9.38;2.15;;;;;;;-145.01;100.00;64805.59;5049589;28;20051;-54
2022/09/09 07:33:26;;;;;;;11.13;2.60;;;;;;;-145.01;100.00;64805.59;5049932;28;20079;-54
2022/09/09 07:35:52;;;;;;;10.93;2.80;;;;;;;-145.01;100.00;64805.59;5055312;28;20487;-55
2022/09/09 07:38:18;;;;;;;10.18;2.00;;;;;;;-145.01;100.00;64805.59;5057800;28;20024;-54
2022/09/09 07:40:44;;;;;;;9.90;2.22;;;;;;;-145.01;100.00;64805.59;5056464;28;20382;-55
2022/09/09 07:43:09;;;;;;;10.18;2.08;;;;;;;-145.01;100.00;64805.59;5059412;28;20028;-55
2022/09/09 07:45:35;;;;;;;13.00;2.88;;;;;;;-145.01;100.00;64805.59;5052816;28;20106;-55
2022/09/09 07:48:01;;;;;;;11.18;2.97;;;;;;;-145.01;100.00;64805.59;5053907;28;20032;-55
2022/09/09 07:50:26;;;;;;;17.45;2.75;;;;;;;-145.01;100.00;64805.59;5048708;28;20035;-57
2022/09/09 07:52:53;;;;;;;13.60;2.28;;;;;;;-145.01;100.00;64805.59;5052011;28;20082;-55
2022/09/09 07:55:19;;;;;;;9.05;2.30;;;;;;;-145.01;100.00;64805.59;5053660;28;20098;-56
2022/09/09 07:57:44;;;;;;;10.50;1.88;;;;;;;-145.01;100.00;64805.59;5049893;28;20071;-56
2022/09/09 08:00:11;;;;;;;10.88;2.47;;;;;;;-145.01;100.00;64805.59;5049030;28;20379;-57
2022/09/09 08:02:36;;;;;;;9.25;2.25;;;;;;;-145.01;100.00;64805.59;5049329;28;20374;-55
2022/09/09 08:05:02;;;;;;;7.68;1.90;;;;;;;-145.01;100.00;64805.59;5054383;28;20044;-55
2022/09/09 08:07:28;;;;;;;7.53;2.13;;;;;;;-145.01;100.00;64805.59;5050602;28;20371;-55
2022/09/09 08:09:55;;;;;;;8.07;2.00;;;;;;;-145.01;100.00;64805.59;5050099;28;20021;-56
2022/09/09 08:12:21;;;;;;;7.80;1.90;;;;;;;-145.01;100.00;64805.59;5051696;28;20029;-54
2022/09/09 08:14:47;;;;;;;10.50;2.10;;;;;;;-145.01;100.00;64805.59;5047820;28;20549;-56
2022/09/09 08:17:12;;;;;;;7.03;1.92;;;;;;;-145.01;100.00;64805.59;5052588;28;20029;-56
2022/09/09 08:19:38;;;;;;;10.88;2.05;;;;;;;-145.01;100.00;64805.59;5055514;28;20380;-54
2022/09/09 08:22:03;;;;;;;11.07;2.28;;;;;;;-145.01;100.00;64805.59;5047859;28;20024;-54
2022/09/09 08:24:29;;;;;;;5.88;1.88;;;;;;;-145.01;100.00;64805.59;5054433;28;20024;-55
2022/09/09 08:26:54;;;;;;;4.65;1.80;;;;;;;-145.01;100.00;64805.59;5052649;28;20028;-55
2022/09/09 08:29:20;;;;;;;6.75;1.80;;;;;;;-145.01;100.00;64805.59;5055424;28;20053;-55
2022/09/09 08:31:50;;;;;;;7.45;1.92;;;;;;;-145.01;100.00;64805.59;5049332;28;20044;-54
2022/09/09 08:34:17;;;;;;;4.00;1.65;;;;;;;-145.01;100.00;64805.59;5052364;28;20047;-56
2022/09/09 08:36:44;;;;;;;11.02;2.22;;;;;;;-145.01;100.00;64805.59;5048724;28;20043;-55
2022/09/09 08:39:10;;;;;;;10.75;2.13;;;;;;;-145.01;100.00;64805.59;5052855;28;20108;-55
2022/09/09 08:42:01;;;;;;;7.75;1.90;;;;;;;-145.01;100.00;64805.59;5050729;28;20031;-55
2022/09/09 08:44:47;;;;;;;8.95;1.70;;;;;;;-145.01;100.00;64805.59;5059756;28;20040;-55
2022/09/09 08:47:28;;;;;;;7.60;1.80;;;;;;;-145.01;100.00;64805.59;5049027;28;20040;-56
2022/09/09 08:50:00;;;;;;;7.57;2.20;;;;;;;-145.01;100.00;64805.59;5056104;28;20074;-55
2022/09/09 08:52:52;;;;;;;8.32;2.10;;;;;;;-145.01;100.00;64805.59;5047478;28;20052;-55
2022/09/09 08:55:24;;;;;;;12.35;1.90;;;;;;;-145.01;100.00;64805.59;5033897;28;20033;-54
2022/09/09 08:57:51;;;;;;;7.38;1.85;;;;;;;-145.01;100.00;64805.59;5047339;28;20021;-54
2022/09/09 09:00:17;;;;;;;11.95;1.98;;;;;;;-145.01;100.00;64805.59;5047334;28;20037;-54
2022/09/09 09:03:15;;;;;;;9.23;2.30;;;;;;;-145.01;100.00;64805.59;5076096;28;20040;-54
2022/09/09 09:05:52;;;;;;;9.60;2.00;;;;;;;-145.01;100.00;64805.59;5049127;28;20388;-56
2022/09/09 09:08:26;;;;;;;16.75;3.05;;;;;;;-145.01;100.00;64805.59;5057732;28;20040;-55
2022/09/09 09:10:54;;;;;;;10.98;1.88;;;;;;;-145.01;100.00;64805.59;5052596;28;20472;-55
2022/09/09 09:13:30;;;;;;;12.10;2.20;;;;;;;-145.01;100.00;64805.59;5080558;28;20495;-55
2022/09/09 09:15:59;;;;;;;9.40;2.00;;;;;;;-145.01;100.00;64805.59;5054810;28;20093;-54
2022/09/09 09:18:24;;;;;;;11.25;1.95;;;;;;;-145.01;100.00;64805.59;5062574;28;20513;-55
2022/09/09 09:20:59;;;;;;;8.65;1.85;;;;;;;-145.01;100.00;64805.59;5087295;28;20045;-55
2022/09/09 09:23:26;;;;;;;8.23;1.98;;;;;;;-145.01;100.00;64805.59;5057619;28;20033;-56
2022/09/09 09:25:54;;;;;;;7.68;2.00;;;;;;;-145.01;100.00;64805.59;5055835;28;20079;-52
2022/09/09 09:28:24;;;;;;;12.32;2.00;;;;;;;-145.01;100.00;64805.59;5070042;28;20405;-53
2022/09/09 09:31:04;;;;;;;12.65;2.15;;;;;;;-145.01;100.00;64805.59;5051335;28;20032;-54
2022/09/09 09:33:52;;;;;;;6.22;2.00;;;;;;;-145.01;100.00;64805.59;5047587;28;20650;-53
2022/09/09 09:36:18;;;;;;;9.85;2.30;;;;;;;-145.01;100.00;64805.59;5057073;28;20090;-56
2022/09/09 09:38:59;;;;;;;4.68;1.73;;;;;;;-145.01;100.00;64805.59;5052936;28;20033;-56
2022/09/09 09:41:41;;;;;;;7.68;1.83;;;;;;;-145.01;100.00;64805.59;5018390;28;20102;-54
2022/09/09 09:44:32;;;;;;;10.57;2.20;;;;;;;-145.01;100.00;64805.59;5060188;28;20028;-54
2022/09/09 09:47:14;;;;;;;8.40;1.90;;;;;;;-145.01;100.00;64805.59;5050258;28;20360;-54
2022/09/09 09:49:55;;;;;;;8.82;1.90;;;;;;;-145.01;100.00;64805.59;5056514;28;20025;-56
2022/09/09 09:52:28;;;;;;;6.95;1.88;;;;;;;-145.01;100.00;64805.59;5057504;28;20499;-56
2022/09/09 09:54:53;;;;;;;12.10;1.92;;;;;;;-145.01;100.00;64805.59;5050487;28;20037;-55
2022/09/09 09:57:29;;;;;;;7.80;1.88;;;;;;;-145.01;100.00;64805.59;5092890;28;20542;-55
2022/09/09 10:00:21;;;;;;;5.72;2.10;;;;;;;-145.01;100.00;64805.59;5056546;28;20497;-56
2022/09/09 10:02:47;;;;;;;11.07;1.90;;;;;;;-145.01;100.00;64805.59;5056237;28;20045;-53
2022/09/09 10:05:24;;;;;;;10.95;2.08;;;;;;;-145.01;100.00;64805.59;5038089;28;20108;-54
2022/09/09 10:08:16;;;;;;;10.55;2.28;;;;;;;-145.01;100.00;64805.59;5057323;28;20028;-56
2022/09/09 10:10:56;;;;;;;12.48;2.67;;;;;;;-145.01;100.00;64805.59;5051071;28;20028;-54
2022/09/09 10:14:17;;;;;;;5.72;1.83;;;;;;;-145.01;100.00;64805.59;5051196;28;20025;-54
2022/09/09 10:16:58;;;;;;;10.27;2.10;;;;;;;-145.01;100.00;64805.59;5007574;28;20069;-55
2022/09/09 10:19:35;;;;;;;12.35;2.38;;;;;;;-145.01;100.00;64805.59;5072208;28;20045;-55
2022/09/09 10:22:12;;;;;;;8.73;2.15;;;;;;;-145.01;100.00;64805.59;5054138;28;20024;-55
2022/09/09 10:24:44;;;;;;;9.32;2.08;;;;;;;-145.01;100.00;64805.59;5050689;28;20021;-54
2022/09/09 10:27:18;;;;;;;7.80;1.80;;;;;;;-145.01;100.00;64805.59;5057807;28;20231;-55
2022/09/09 10:30:17;;;;;;;6.35;1.73;;;;;;;-145.01;100.00;64805.59;5052258;28;20114;-55
2022/09/09 10:33:05;;;;;;;9.52;2.00;;;;;;;-145.01;100.00;64805.59;5057090;28;20057;-55
2022/09/09 10:35:45;;;;;;;5.72;1.75;;;;;;;-145.01;100.00;64805.59;5049159;28;20028;-55
2022/09/09 10:38:16;;;;;;;5.90;1.63;;;;;;;-145.01;100.00;64805.59;5048976;28;20029;-54
2022/09/09 10:40:45;;;;;;;11.23;2.50;;;;;;;-145.01;100.00;64805.59;5032621;28;20037;-55
2022/09/09 10:43:24;;;;;;;7.97;1.70;;;;;;;-145.01;100.00;64805.59;5050654;28;20123;-56
2022/09/09 10:45:52;;;;;;;8.30;1.90;;;;;;;-145.01;100.00;64805.59;5054722;28;20457;-57
2022/09/09 10:48:30;;;;;;;7.03;1.90;;;;;;;-145.01;100.00;64805.59;5057402;28;20036;-55
2022/09/09 10:51:06;;;;;;;8.48;2.00;;;;;;;-145.01;100.00;64805.59;5050592;28;20033;-55
2022/09/09 10:53:34;;;;;;;8.15;1.90;;;;;;;-145.01;100.00;64805.59;5053305;28;20071;-55
2022/09/09 10:56:09;;;;;;;7.05;1.77;;;;;;;-145.01;100.00;64805.59;5049967;28;20450;-56
2022/09/09 10:58:56;;;;;;;6.15;1.70;;;;;;;-145.01;100.00;64805.59;5037567;28;20463;-56
2022/09/09 11:01:44;;;;;;;6.18;1.70;;;;;;;-145.01;100.00;64805.59;5055316;28;20039;-54
2022/09/09 11:04:34;;;;;;;9.60;1.88;;;;;;;-145.01;100.00;64805.59;5052223;28;20487;-54
2022/09/09 11:07:03;;;;;;;9.02;2.03;;;;;;;-145.01;100.00;64805.59;5062236;28;20036;-56
2022/09/09 11:09:32;;;;;;;8.27;1.80;;;;;;;-145.01;100.00;64805.59;5051950;28;20082;-56
2022/09/09 11:11:58;;;;;;;7.95;1.70;;;;;;;-145.01;100.00;64805.59;5047574;28;20468;-55
2022/09/09 11:14:27;;;;;;;8.30;2.05;;;;;;;-145.01;100.00;64805.59;5058746;28;20033;-54
2022/09/09 11:17:09;;;;;;;10.13;1.80;;;;;;;-145.01;100.00;64805.59;5052806;28;20033;-54
2022/09/09 11:19:42;;;;;;;10.15;1.75;;;;;;;-145.01;100.00;64805.59;5050398;28;20031;-57
2022/09/09 11:22:14;;;;;;;5.90;1.50;;;;;;;-145.01;100.00;64805.59;5049923;28;20375;-53
2022/09/09 11:24:40;;;;;;;5.05;1.65;;;;;;;-145.01;100.00;64805.59;5048436;28;20044;-56